Aviation Digital Data Service (ADDS)

Output produced by METARs form (0904 UTC 30 July 2014)
found at http://www.aviationweather.gov/adds/metars/
 
KFIG 300854Z AUTO 00000KT 1/4SM FG VV002 10/10 A3005 RMK AO2 SLP174 T01000100 53002
KFIG 300821Z AUTO 00000KT 1/4SM FG VV002 10/10 A3004 RMK AO2 T01000100
KFIG 300754Z AUTO 00000KT 1/2SM FG VV002 10/09 A3004 RMK AO2 SLP171 T01000094
KFIG 300746Z AUTO 00000KT 1/4SM FG VV002 10/10 A3004 RMK AO2 T01000100
KFIG 300722Z AUTO 00000KT 3/4SM BR VV002 10/10 A3004 RMK AO2 T01000100
KFIG 300707Z AUTO 00000KT 1/4SM FG VV002 10/09 A3004 RMK AO2 T01000094
KFIG 300700Z AUTO 00000KT 3/4SM BR VV003 10/10 A3004 RMK AO2 T01000100
KFIG 300658Z AUTO 00000KT 1 1/4SM BR FEW003 11/10 A3004 RMK AO2 T01060100
KFIG 300654Z AUTO 00000KT 2 1/2SM BR CLR 11/10 A3004 RMK AO2 SLP171 T01060100
KFIG 300639Z AUTO 00000KT 1 1/2SM BR FEW003 11/10 A3004 RMK AO2 T01060100
KFIG 300554Z AUTO 00000KT 9SM BKN040 11/11 A3004 RMK AO2 SLP172 T01110111 10161 20111 50000
KFIG 300454Z AUTO 21003KT 10SM CLR 12/11 A3005 RMK AO2 SLP173 T01170111 401940111
KFIG 300354Z AUTO 23003KT 10SM CLR 13/11 A3004 RMK AO2 SLP172 T01280111
KFIG 300254Z AUTO 23004KT 10SM FEW080 14/11 A3004 RMK AO2 SLP171 T01390111 51007
KFIG 300154Z AUTO 24005KT 10SM OVC080 14/11 A3004 RMK AO2 SLP172 T01440111
KFIG 300054Z AUTO 22004KT 10SM OVC075 16/11 A3002 RMK AO2 SLP166 T01560111
KFIG 292354Z AUTO 24004KT 10SM OVC080 16/11 A3002 RMK AO2 SLP165 T01610111 10194 20161 51009
KFIG 292254Z AUTO 26005KT 10SM OVC075 17/11 A3001 RMK AO2 SLP162 T01720111
KFIG 292154Z AUTO VRB03KT 10SM BKN075 18/11 A3000 RMK AO2 SLP158 T01780106
KFIG 292054Z AUTO 27008KT 10SM FEW039 FEW049 OVC070 18/11 A2999 RMK AO2 SLP154 T01780106 53003
KFIG 291954Z AUTO 32007KT 10SM SCT040 OVC070 18/09 A2999 RMK AO2 SLP152 T01830094
KFIG 291854Z AUTO 01004KT 10SM FEW035 OVC060 18/10 A2999 RMK AO2 SLP151 T01830100
KFIG 291754Z AUTO 31005KT 10SM OVC055 17/09 A2999 RMK AO2 SLP151 T01670089 10172 20122 58002
KFIG 291654Z AUTO 26004KT 10SM FEW027 BKN043 OVC050 16/10 A2999 RMK AO2 SLP153 T01560100
KFIG 291554Z AUTO 28004KT 10SM OVC050 16/10 A2999 RMK AO2 SLP154 T01610100
KFIG 291454Z AUTO 31005KT 10SM OVC050 16/09 A2999 RMK AO2 SLP154 T01560094 51011
KFIG 291354Z AUTO 28004KT 10SM FEW020 OVC050 14/11 A2998 RMK AO2 SLP151 T01440106
KFIG 291254Z AUTO 24005KT 10SM OVC049 13/11 A2997 RMK AO2 SLP146 T01330111
KFIG 291154Z AUTO 25005KT 10SM FEW015 OVC049 12/11 A2996 RMK AO2 SLP143 70011 T01220111 10133 20111 53017
KFIG 291146Z AUTO 26004KT 10SM FEW015 OVC049 12/11 A2996 RMK AO2 T01220111
KFIG 291111Z AUTO 20003KT 10SM BKN016 BKN029 OVC050 12/11 A2995 RMK AO2 T01170111
KFIG 291054Z AUTO 00000KT 10SM FEW027 OVC050 12/11 A2994 RMK AO2 SLP138 T01170111
KFIG 291021Z AUTO 24003KT 10SM FEW014 SCT021 OVC050 12/11 A2993 RMK AO2 T01170106
KFIG 291003Z AUTO 00000KT 10SM SCT014 BKN023 OVC050 12/11 A2992 RMK AO2 T01170106
KFIG 290954Z AUTO 19003KT 10SM FEW014 SCT024 BKN050 12/11 A2992 RMK AO2 SLP131 T01170106
KFIG 290854Z AUTO 25004KT 10SM SCT036 OVC055 12/11 A2991 RMK AO2 SLP125 T01220106 53002
KFIG 290838Z AUTO 00000KT 10SM SCT016 BKN055 12/11 A2990 RMK AO2 T01220106
KFIG 290831Z AUTO VRB04KT 10SM BKN016 BKN023 BKN055 12/11 A2990 RMK AO2 T01220111
KFIG 290754Z AUTO 24005KT 10SM OVC013 13/11 A2990 RMK AO2 SLP121 T01280111
KFIG 290739Z AUTO 23004KT 10SM BKN013 OVC020 13/11 A2990 RMK AO2 T01280111
KFIG 290709Z AUTO 25004KT 10SM OVC015 13/11 A2990 RMK AO2 T01330111
KFIG 290654Z AUTO 26005KT 10SM BKN012 OVC018 13/11 A2990 RMK AO2 SLP121 T01330111
KFIG 290554Z AUTO 22004KT 10SM OVC011 13/11 A2990 RMK AO2 SLP121 T01330111 10167 20133 52002
KFIG 290528Z AUTO VRB04KT 10SM OVC013 13/12 A2990 RMK AO2 T01330117
KFIG 290454Z AUTO 26007KT 10SM BKN017 14/11 A2990 RMK AO2 SLP119 T01390111 402220139
KFIG 290436Z AUTO 28005KT 10SM BKN017 BKN050 14/12 A2990 RMK AO2 T01390117
KFIG 290419Z AUTO 27005KT 10SM SCT018 BKN049 BKN055 14/12 A2990 RMK AO2 T01390117
KFIG 290412Z AUTO 29005KT 10SM BKN018 BKN049 14/12 A2990 RMK AO2 T01440117
KFIG 290354Z AUTO 30009KT 10SM SCT022 BKN043 OVC050 14/12 A2990 RMK AO2 SLP120 T01440122
KFIG 290311Z AUTO 29012KT 10SM BKN019 BKN024 OVC033 15/12 A2990 RMK AO2 T01500122
KFIG 290254Z AUTO VRB06KT 10SM FEW017 BKN035 OVC065 15/13 A2990 RMK AO2 SLP119 T01500128 53009
KFIG 290154Z AUTO 29004KT 10SM FEW016 SCT029 OVC043 16/13 A2989 RMK AO2 SLP117 T01560133
KFIG 290054Z AUTO 31005KT 10SM FEW022 BKN060 OVC075 16/13 A2987 RMK AO2 SLP109 T01610128
KFIG 290049Z AUTO 30003KT 10SM SCT021 BKN050 OVC075 16/13 A2987 RMK AO2
KFIG 290037Z AUTO 30006KT 10SM SCT021 BKN026 OVC048 16/13 A2986 RMK AO2 T01610128
KFIG 282354Z AUTO 32006KT 10SM FEW021 FEW039 OVC050 17/13 A2985 RMK AO2 SLP103 60011 T01670128 10222 20167 51027
KFIG 282331Z AUTO 32009KT 10SM FEW024 BKN030 OVC039 17/13 A2985 RMK AO2 T01670133
KFIG 282306Z AUTO 31009KT 10SM BKN024 OVC030 17/13 A2983 RMK AO2 T01720133
KFIG 282254Z AUTO 32008KT 10SM SCT026 BKN033 OVC095 17/13 A2983 RMK AO2 SLP096 T01720133
KFIG 282226Z AUTO 32011G17KT 10SM SCT028 OVC100 17/14 A2982 RMK AO2 T01720139
KFIG 282203Z AUTO 33013G17KT 10SM BKN027 OVC095 17/14 A2980 RMK AO2 T01720139
KFIG 282154Z AUTO 33011G18KT 10SM SCT025 BKN030 OVC095 17/14 A2980 RMK AO2 SLP086 T01720144